createdAt,value
2022-12-17T00:00:00.704Z,98549.84
2022-12-17T00:05:21.236Z,98548.75
2022-12-17T00:10:41.910Z,98548.69
2022-12-17T00:16:09.178Z,98550.03
2022-12-17T00:21:30.220Z,98556.19
2022-12-17T00:26:51.329Z,98561.03
2022-12-17T00:32:12.524Z,98569.53
2022-12-17T00:37:32.997Z,98566.00
2022-12-17T00:42:53.692Z,98571.56
2022-12-17T00:48:16.793Z,98579.53
2022-12-17T00:53:37.756Z,98591.22
2022-12-17T00:58:58.322Z,98597.84
2022-12-17T01:04:20.508Z,98608.19
2022-12-17T01:09:40.773Z,98610.28
2022-12-17T01:15:01.566Z,98615.53
2022-12-17T01:20:22.295Z,98612.66
2022-12-17T01:25:43.021Z,98620.84
2022-12-17T01:31:03.690Z,98627.69
2022-12-17T01:36:26.290Z,98628.75
2022-12-17T01:41:46.672Z,98638.06
2022-12-17T01:47:10.336Z,98631.41
2022-12-17T01:52:33.932Z,98631.97
2022-12-17T01:57:54.953Z,98638.88
2022-12-17T02:03:17.326Z,98641.25
2022-12-17T02:08:52.720Z,98646.88
2022-12-17T02:14:39.604Z,98653.28
2022-12-17T02:20:24.796Z,98653.28
2022-12-17T02:25:57.950Z,98658.50
2022-12-17T02:31:19.794Z,98654.19
2022-12-17T02:36:40.475Z,98656.09
2022-12-17T02:42:05.996Z,98658.28
2022-12-17T02:47:28.768Z,98663.28
2022-12-17T02:52:52.235Z,98662.19
2022-12-17T02:58:12.884Z,98669.13
2022-12-17T03:03:33.555Z,98670.13
2022-12-17T03:08:54.531Z,98674.97
2022-12-17T03:14:14.962Z,98674.22
2022-12-17T03:19:35.568Z,98682.97
2022-12-17T03:24:56.136Z,98678.50
2022-12-17T03:30:16.592Z,98688.09
2022-12-17T03:35:37.363Z,98695.25
2022-12-17T03:40:57.277Z,98701.09
2022-12-17T03:46:17.959Z,98702.44
2022-12-17T03:51:38.644Z,98704.28
2022-12-17T03:57:19.048Z,98708.47
2022-12-17T04:02:39.613Z,98709.84
2022-12-17T04:08:00.339Z,98714.56
2022-12-17T04:13:20.966Z,98722.25
2022-12-17T04:18:41.477Z,98726.56
2022-12-17T04:24:02.802Z,98745.16
2022-12-17T04:29:23.437Z,98744.06
2022-12-17T04:34:44.164Z,98755.31
2022-12-17T04:40:04.832Z,98753.69
2022-12-17T04:45:25.348Z,98762.22
2022-12-17T04:50:45.902Z,98756.94
2022-12-17T04:56:06.445Z,98763.31
2022-12-17T05:01:26.843Z,98766.28
2022-12-17T05:06:47.589Z,98771.38
2022-12-17T05:12:08.252Z,98778.59
2022-12-17T05:17:28.878Z,98786.09
2022-12-17T05:22:49.526Z,98786.91
2022-12-17T05:28:10.207Z,98796.41
2022-12-17T05:33:30.778Z,98808.16
2022-12-17T05:38:51.484Z,98814.00
2022-12-17T05:44:12.427Z,98824.78
2022-12-17T05:49:32.825Z,98816.88
2022-12-17T05:54:53.548Z,98831.50
2022-12-17T06:00:13.744Z,98840.31
2022-12-17T06:05:34.319Z,98835.91
2022-12-17T06:10:55.034Z,98843.34
2022-12-17T06:16:15.756Z,98849.72
2022-12-17T06:21:36.207Z,98852.38
2022-12-17T06:26:56.889Z,98850.81
2022-12-17T06:32:16.948Z,98859.91
2022-12-17T06:37:37.582Z,98867.47
2022-12-17T06:42:58.267Z,98875.44
2022-12-17T06:48:23.843Z,98880.53
2022-12-17T06:53:44.672Z,98887.97
2022-12-17T06:59:05.345Z,98888.50
2022-12-17T07:04:26.037Z,98903.13
2022-12-17T07:09:46.642Z,98904.13
2022-12-17T07:15:07.413Z,98915.53
2022-12-17T07:20:29.027Z,98920.28
2022-12-17T07:25:49.586Z,98930.91
2022-12-17T07:31:10.282Z,98930.13
2022-12-17T07:36:31.156Z,98941.91
2022-12-17T07:41:51.786Z,98936.31
2022-12-17T07:47:12.372Z,98946.13
2022-12-17T07:52:33.057Z,98946.94
2022-12-17T07:57:53.723Z,98951.22
2022-12-17T08:03:18.488Z,98957.38
2022-12-17T08:08:38.839Z,98967.78
2022-12-17T08:13:59.259Z,98969.19
2022-12-17T08:19:19.340Z,98984.00
2022-12-17T08:24:39.999Z,98994.00
2022-12-17T08:30:00.636Z,98998.06
2022-12-17T08:35:21.662Z,99005.47
2022-12-17T08:40:42.098Z,99012.91
2022-12-17T08:46:09.808Z,99012.50
2022-12-17T08:51:30.629Z,99024.31
2022-12-17T08:56:51.114Z,99022.69
2022-12-17T09:02:12.852Z,99025.09
2022-12-17T09:07:33.575Z,99039.75
2022-12-17T09:12:54.122Z,99044.88
2022-12-17T09:18:14.840Z,99053.16
2022-12-17T09:23:36.709Z,99053.47
2022-12-17T09:28:57.609Z,99050.72
2022-12-17T09:34:18.297Z,99053.44
2022-12-17T09:39:38.831Z,99058.22
2022-12-17T09:45:19.900Z,99062.44
2022-12-17T09:50:40.520Z,99076.69
2022-12-17T09:56:08.478Z,99071.16
2022-12-17T10:01:40.425Z,99057.91
2022-12-17T10:07:01.146Z,99074.53
2022-12-17T10:12:36.145Z,99078.78
2022-12-17T10:17:56.904Z,99084.13
2022-12-17T10:23:17.466Z,99094.59
2022-12-17T10:28:42.015Z,99095.63
2022-12-17T10:34:03.824Z,99093.78
2022-12-17T10:39:24.947Z,99100.44
2022-12-17T10:44:53.731Z,99108.13
2022-12-17T10:50:24.488Z,99108.38
2022-12-17T10:55:48.715Z,99105.50
2022-12-17T11:01:17.326Z,99125.69
2022-12-17T11:06:43.846Z,99122.81
2022-12-17T11:12:07.476Z,99116.97
2022-12-17T11:17:34.962Z,99127.91
2022-12-17T11:23:14.483Z,99125.88
2022-12-17T11:28:43.160Z,99118.63
2022-12-17T11:34:14.940Z,99128.00
2022-12-17T11:40:00.494Z,99132.06
2022-12-17T11:45:25.900Z,99130.56
2022-12-17T11:51:04.550Z,99133.47
2022-12-17T11:56:46.432Z,99138.13
2022-12-17T12:02:19.309Z,99137.66
2022-12-17T12:07:54.704Z,99144.84
2022-12-17T12:13:21.126Z,99145.66
2022-12-17T12:19:13.652Z,99154.75
2022-12-17T12:24:57.140Z,99139.91
2022-12-17T12:30:23.330Z,99142.53
2022-12-17T12:35:47.111Z,99155.34
2022-12-17T12:41:20.794Z,99160.16
2022-12-17T12:47:19.687Z,99162.25
2022-12-17T12:52:43.784Z,99169.44
2022-12-17T12:58:24.916Z,99167.09
2022-12-17T13:04:02.061Z,99164.47
2022-12-17T13:09:08.013Z,99175.91
2022-12-17T13:14:48.092Z,99180.25
2022-12-17T13:19:58.632Z,99189.69
2022-12-17T13:25:22.193Z,99189.19
2022-12-17T13:30:34.906Z,99196.66
2022-12-17T13:36:07.930Z,99196.13
2022-12-17T13:41:13.328Z,99207.28
2022-12-17T13:46:27.292Z,99208.63
2022-12-17T13:51:32.865Z,99214.19
2022-12-17T13:56:37.644Z,99217.91
2022-12-17T14:01:48.081Z,99222.50
2022-12-17T14:06:51.260Z,99226.50
2022-12-17T14:12:11.888Z,99238.22
2022-12-17T14:17:28.943Z,99247.81
2022-12-17T14:22:39.113Z,99250.53
2022-12-17T14:27:48.949Z,99266.53
2022-12-17T14:32:51.187Z,99276.09
2022-12-17T14:37:53.317Z,99284.81
2022-12-17T14:43:01.715Z,99283.44
2022-12-17T14:48:08.831Z,99286.34
2022-12-17T14:53:27.813Z,99290.84
2022-12-17T14:58:29.996Z,99305.22
2022-12-17T15:03:35.623Z,99307.34
2022-12-17T15:08:43.291Z,99311.63
2022-12-17T15:13:45.437Z,99320.72
2022-12-17T15:18:47.348Z,99322.00
2022-12-17T15:23:49.352Z,99319.63
2022-12-17T15:28:51.173Z,99324.13
2022-12-17T15:33:53.006Z,99333.97
2022-12-17T15:38:55.315Z,99337.19
2022-12-17T15:43:57.655Z,99340.94
2022-12-17T15:48:59.907Z,99330.84
2022-12-17T15:54:02.165Z,99335.38
2022-12-17T15:59:04.481Z,99346.28
2022-12-17T16:04:12.007Z,99352.38
2022-12-17T16:09:18.421Z,99360.63
2022-12-17T16:14:20.309Z,99370.41
2022-12-17T16:19:22.668Z,99361.31
2022-12-17T16:24:25.133Z,99366.84
2022-12-17T16:29:26.961Z,99370.75
2022-12-17T16:34:29.118Z,99369.19
2022-12-17T16:39:31.697Z,99382.78
2022-12-17T16:44:34.296Z,99382.78
2022-12-17T16:49:36.220Z,99385.03
2022-12-17T16:54:38.041Z,99397.78
2022-12-17T16:59:40.072Z,99394.41
2022-12-17T17:04:41.921Z,99398.22
2022-12-17T17:09:43.808Z,99404.19
2022-12-17T17:14:45.626Z,99408.50
2022-12-17T17:19:48.147Z,99410.81
2022-12-17T17:24:50.908Z,99414.34
2022-12-17T17:29:54.459Z,99420.78
2022-12-17T17:34:58.538Z,99429.81
2022-12-17T17:40:00.458Z,99426.47
2022-12-17T17:45:03.592Z,99423.13
2022-12-17T17:50:06.108Z,99424.59
2022-12-17T17:55:08.419Z,99426.38
2022-12-17T18:00:11.282Z,99420.59
2022-12-17T18:05:13.198Z,99427.69
2022-12-17T18:10:15.117Z,99432.34
2022-12-17T18:15:18.343Z,99447.00
2022-12-17T18:20:20.849Z,99456.81
2022-12-17T18:25:22.730Z,99455.50
2022-12-17T18:30:25.210Z,99447.44
2022-12-17T18:35:27.709Z,99461.69
2022-12-17T18:40:33.278Z,99466.69
2022-12-17T18:45:38.330Z,99478.72
2022-12-17T18:50:40.673Z,99486.81
2022-12-17T18:55:43.156Z,99484.88
2022-12-17T19:00:45.026Z,99490.44
2022-12-17T19:05:51.300Z,99485.94
2022-12-17T19:10:55.922Z,99503.25
2022-12-17T19:15:57.786Z,99501.97
2022-12-17T19:21:00.301Z,99498.41
2022-12-17T19:26:12.184Z,99508.56
2022-12-17T19:31:15.473Z,99508.56
2022-12-17T19:36:23.869Z,99521.25
2022-12-17T19:41:32.965Z,99520.19
2022-12-17T19:46:37.009Z,99535.66
2022-12-17T19:51:40.742Z,99525.59
2022-12-17T19:56:44.510Z,99528.59
2022-12-17T20:01:48.604Z,99523.84
2022-12-17T20:06:51.099Z,99537.78
2022-12-17T20:11:53.278Z,99541.22
2022-12-17T20:16:57.994Z,99540.94
2022-12-17T20:22:02.226Z,99541.13
2022-12-17T20:27:04.725Z,99541.28
2022-12-17T20:32:07.694Z,99553.78
2022-12-17T20:37:10.165Z,99567.06
2022-12-17T20:42:12.118Z,99573.53
2022-12-17T20:47:13.952Z,99569.72
2022-12-17T20:52:15.717Z,99569.81
2022-12-17T20:57:17.773Z,99578.22
2022-12-17T21:02:19.762Z,99579.22
2022-12-17T21:07:21.715Z,99581.69
2022-12-17T21:12:44.231Z,99577.72
2022-12-17T21:17:46.046Z,99582.63
2022-12-17T21:22:47.860Z,99593.22
2022-12-17T21:27:49.677Z,99582.22
2022-12-17T21:32:51.518Z,99593.22
2022-12-17T21:37:53.319Z,99599.75
2022-12-17T21:43:04.052Z,99600.34
2022-12-17T21:48:12.634Z,99609.38
2022-12-17T21:53:17.130Z,99611.88
2022-12-17T21:58:19.498Z,99620.13
2022-12-17T22:03:21.290Z,99612.91
2022-12-17T22:08:23.150Z,99601.09
2022-12-17T22:13:44.029Z,99606.16
2022-12-17T22:18:45.830Z,99618.22
2022-12-17T22:23:48.903Z,99622.47
2022-12-17T22:28:51.181Z,99631.44
2022-12-17T22:34:56.099Z,99646.56
2022-12-17T22:44:03.752Z,99640.66
2022-12-17T22:44:55.254Z,99637.69
2022-12-17T22:49:59.610Z,99651.63
2022-12-17T22:55:01.928Z,99650.47
2022-12-17T23:00:13.159Z,99660.25
2022-12-17T23:05:15.026Z,99664.34
2022-12-17T23:10:17.470Z,99654.22
2022-12-17T23:15:21.723Z,99648.16
2022-12-17T23:20:24.313Z,99660.84
2022-12-17T23:25:27.322Z,99662.81
2022-12-17T23:30:29.134Z,99667.28
2022-12-17T23:35:31.827Z,99671.56
2022-12-17T23:40:34.031Z,99676.00
2022-12-17T23:45:35.821Z,99675.19
2022-12-17T23:50:37.632Z,99659.31
2022-12-17T23:55:39.622Z,99656.91
